sensor_id;sensor_type;location;lat;lon;timestamp;pressure;altitude;pressure_sealevel;temperature;humidity
61113;BME280;47184;57.998;56.184;2022-08-11T00:02:35;100278.88;;;19.29;77.95
61113;BME280;47184;57.998;56.184;2022-08-11T00:05:12;100276.22;;;19.16;78.21
61113;BME280;47184;57.998;56.184;2022-08-11T00:07:48;100270.69;;;19.04;78.19
61113;BME280;47184;57.998;56.184;2022-08-11T00:10:20;100278.75;;;18.91;78.13
61113;BME280;47184;57.998;56.184;2022-08-11T00:12:55;100262.69;;;18.84;78.06
61113;BME280;47184;57.998;56.184;2022-08-11T00:15:28;100267.25;;;18.90;77.85
61113;BME280;47184;57.998;56.184;2022-08-11T00:18:02;100262.28;;;18.80;77.54
61113;BME280;47184;57.998;56.184;2022-08-11T00:20:41;100260.66;;;18.66;77.83
61113;BME280;47184;57.998;56.184;2022-08-11T00:23:11;100230.63;;;18.38;77.92
61113;BME280;47184;57.998;56.184;2022-08-11T00:25:49;100231.66;;;18.17;78.44
61113;BME280;47184;57.998;56.184;2022-08-11T00:28:26;100270.94;;;18.29;78.77
61113;BME280;47184;57.998;56.184;2022-08-11T00:30:54;100274.41;;;18.17;79.01
61113;BME280;47184;57.998;56.184;2022-08-11T00:33:23;100201.31;;;17.56;79.43
61113;BME280;47184;57.998;56.184;2022-08-11T00:35:56;100266.13;;;17.92;79.80
61113;BME280;47184;57.998;56.184;2022-08-11T00:38:24;100280.09;;;17.87;80.24
61113;BME280;47184;57.998;56.184;2022-08-11T00:41:03;100282.28;;;17.70;80.24
61113;BME280;47184;57.998;56.184;2022-08-11T00:43:38;100293.06;;;17.49;80.70
61113;BME280;47184;57.998;56.184;2022-08-11T00:57:21;100283.13;;;17.29;80.42
61113;BME280;47184;57.998;56.184;2022-08-11T01:08:39;100281.25;;;17.23;79.17
61113;BME280;47184;57.998;56.184;2022-08-11T01:11:17;100283.16;;;17.36;78.77
61113;BME280;47184;57.998;56.184;2022-08-11T01:34:13;100254.50;;;17.58;77.81
61113;BME280;47184;57.998;56.184;2022-08-11T01:39:50;100243.81;;;17.51;77.79
61113;BME280;47184;57.998;56.184;2022-08-11T01:45:45;100268.66;;;17.52;77.51
61113;BME280;47184;57.998;56.184;2022-08-11T01:48:27;100209.53;;;17.14;77.38
61113;BME280;47184;57.998;56.184;2022-08-11T01:54:10;100281.75;;;17.47;76.95
61113;BME280;47184;57.998;56.184;2022-08-11T01:57:10;100276.03;;;17.43;76.89
61113;BME280;47184;57.998;56.184;2022-08-11T01:59:44;100246.31;;;17.18;76.50
61113;BME280;47184;57.998;56.184;2022-08-11T02:02:21;100292.66;;;17.45;76.16
61113;BME280;47184;57.998;56.184;2022-08-11T02:08:02;100280.75;;;17.48;76.06
61113;BME280;47184;57.998;56.184;2022-08-11T02:10:44;100297.22;;;17.58;75.69
61113;BME280;47184;57.998;56.184;2022-08-11T02:13:48;100296.19;;;17.59;75.74
61113;BME280;47184;57.998;56.184;2022-08-11T02:22:12;100233.09;;;17.45;75.31
61113;BME280;47184;57.998;56.184;2022-08-11T02:25:05;100290.97;;;17.86;75.08
61113;BME280;47184;57.998;56.184;2022-08-11T02:27:41;100258.63;;;17.67;74.57
61113;BME280;47184;57.998;56.184;2022-08-11T02:30:23;100201.44;;;17.35;74.37
61113;BME280;47184;57.998;56.184;2022-08-11T02:33:28;100295.13;;;18.08;74.08
61113;BME280;47184;57.998;56.184;2022-08-11T02:41:23;100301.69;;;17.99;72.95
61113;BME280;47184;57.998;56.184;2022-08-11T02:44:33;100222.66;;;17.56;73.14
61113;BME280;47184;57.998;56.184;2022-08-11T02:47:15;100274.78;;;17.94;72.37
61113;BME280;47184;57.998;56.184;2022-08-11T02:50:17;100309.56;;;18.14;72.81
61113;BME280;47184;57.998;56.184;2022-08-11T03:00:49;100306.94;;;18.47;71.52
61113;BME280;47184;57.998;56.184;2022-08-11T03:03:28;100246.00;;;18.02;70.99
61113;BME280;47184;57.998;56.184;2022-08-11T03:06:17;100288.78;;;18.16;70.88
61113;BME280;47184;57.998;56.184;2022-08-11T03:08:52;100277.91;;;18.17;70.46
61113;BME280;47184;57.998;56.184;2022-08-11T03:11:38;100316.56;;;18.28;70.44
61113;BME280;47184;57.998;56.184;2022-08-11T03:14:46;100317.59;;;18.27;70.28
61113;BME280;47184;57.998;56.184;2022-08-11T03:18:01;100304.94;;;17.88;69.09
61113;BME280;47184;57.998;56.184;2022-08-11T03:20:34;100324.13;;;18.11;69.48
61113;BME280;47184;57.998;56.184;2022-08-11T03:26:02;100331.41;;;18.37;68.40
61113;BME280;47184;57.998;56.184;2022-08-11T03:28:43;100304.88;;;18.29;68.10
61113;BME280;47184;57.998;56.184;2022-08-11T03:31:52;100336.34;;;18.60;67.85
61113;BME280;47184;57.998;56.184;2022-08-11T03:34:20;100339.03;;;18.67;67.33
61113;BME280;47184;57.998;56.184;2022-08-11T03:45:00;100358.63;;;18.80;66.31
61113;BME280;47184;57.998;56.184;2022-08-11T03:53:14;100351.41;;;18.88;65.64
61113;BME280;47184;57.998;56.184;2022-08-11T03:58:37;100345.44;;;18.79;65.00
61113;BME280;47184;57.998;56.184;2022-08-11T04:01:31;100351.34;;;18.61;64.76
61113;BME280;47184;57.998;56.184;2022-08-11T04:10:03;100358.13;;;18.30;64.73
61113;BME280;47184;57.998;56.184;2022-08-11T04:27:00;100397.28;;;17.97;64.98
61113;BME280;47184;57.998;56.184;2022-08-11T04:30:13;100400.56;;;17.92;64.43
61113;BME280;47184;57.998;56.184;2022-08-11T04:35:43;100406.56;;;18.07;62.84
61113;BME280;47184;57.998;56.184;2022-08-11T04:41:13;100405.78;;;18.14;61.62
61113;BME280;47184;57.998;56.184;2022-08-11T04:58:28;100413.44;;;17.82;61.65
61113;BME280;47184;57.998;56.184;2022-08-11T05:14:55;100385.69;;;17.83;61.56
61113;BME280;47184;57.998;56.184;2022-08-11T05:17:44;100360.09;;;17.61;61.59
61113;BME280;47184;57.998;56.184;2022-08-11T05:20:48;100406.13;;;18.04;61.40
61113;BME280;47184;57.998;56.184;2022-08-11T05:23:38;100351.97;;;17.75;61.12
61113;BME280;47184;57.998;56.184;2022-08-11T05:26:24;100411.94;;;18.14;61.17
61113;BME280;47184;57.998;56.184;2022-08-11T05:29:39;100379.78;;;17.94;61.54
61113;BME280;47184;57.998;56.184;2022-08-11T05:32:37;100377.59;;;18.11;60.85
61113;BME280;47184;57.998;56.184;2022-08-11T05:35:28;100321.47;;;17.63;60.57
61113;BME280;47184;57.998;56.184;2022-08-11T05:37:57;100404.34;;;18.24;60.45
61113;BME280;47184;57.998;56.184;2022-08-11T05:40:49;100398.63;;;18.27;60.19
61113;BME280;47184;57.998;56.184;2022-08-11T05:43:40;100404.41;;;18.38;59.93
61113;BME280;47184;57.998;56.184;2022-08-11T05:46:27;100393.09;;;18.29;59.62
61113;BME280;47184;57.998;56.184;2022-08-11T05:49:13;100401.31;;;18.34;59.69
61113;BME280;47184;57.998;56.184;2022-08-11T05:51:59;100332.34;;;17.96;59.55
61113;BME280;47184;57.998;56.184;2022-08-11T05:54:46;100407.19;;;18.71;59.11
61113;BME280;47184;57.998;56.184;2022-08-11T05:57:33;100410.50;;;18.86;58.83
61113;BME280;47184;57.998;56.184;2022-08-11T06:00:05;100400.19;;;18.96;58.82
61113;BME280;47184;57.998;56.184;2022-08-11T06:03:04;100412.34;;;19.32;58.27
61113;BME280;47184;57.998;56.184;2022-08-11T06:05:36;100408.03;;;19.31;57.89
61113;BME280;47184;57.998;56.184;2022-08-11T06:08:04;100408.63;;;19.20;58.01
61113;BME280;47184;57.998;56.184;2022-08-11T06:10:37;100408.84;;;19.12;57.76
61113;BME280;47184;57.998;56.184;2022-08-11T06:13:06;100336.16;;;18.55;58.24
61113;BME280;47184;57.998;56.184;2022-08-11T06:15:43;100323.97;;;18.32;58.21
61113;BME280;47184;57.998;56.184;2022-08-11T06:18:13;100290.44;;;18.17;58.68
61113;BME280;47184;57.998;56.184;2022-08-11T06:20:50;100404.53;;;18.91;58.74
61113;BME280;47184;57.998;56.184;2022-08-11T06:23:17;100309.13;;;18.10;58.76
61113;BME280;47184;57.998;56.184;2022-08-11T06:25:46;100409.81;;;18.64;59.13
61113;BME280;47184;57.998;56.184;2022-08-11T06:28:14;100414.56;;;18.62;59.25
61113;BME280;47184;57.998;56.184;2022-08-11T06:30:43;100411.09;;;18.75;59.43
61113;BME280;47184;57.998;56.184;2022-08-11T06:33:13;100407.59;;;18.81;59.24
61113;BME280;47184;57.998;56.184;2022-08-11T06:35:59;100386.38;;;18.73;59.33
61113;BME280;47184;57.998;56.184;2022-08-11T06:41:29;100384.91;;;18.50;58.93
61113;BME280;47184;57.998;56.184;2022-08-11T06:46:40;100423.72;;;18.26;59.06
61113;BME280;47184;57.998;56.184;2022-08-11T06:49:11;100423.50;;;18.21;59.67
61113;BME280;47184;57.998;56.184;2022-08-11T06:51:59;100416.28;;;18.28;59.54
61113;BME280;47184;57.998;56.184;2022-08-11T06:54:32;100415.22;;;18.16;59.88
61113;BME280;47184;57.998;56.184;2022-08-11T06:56:59;100413.75;;;18.07;60.14
61113;BME280;47184;57.998;56.184;2022-08-11T06:59:45;100414.41;;;18.09;59.82
61113;BME280;47184;57.998;56.184;2022-08-11T07:02:52;100427.59;;;18.24;59.65
61113;BME280;47184;57.998;56.184;2022-08-11T07:05:44;100423.06;;;18.24;59.37
61113;BME280;47184;57.998;56.184;2022-08-11T07:14:16;100432.69;;;18.12;59.27
61113;BME280;47184;57.998;56.184;2022-08-11T07:17:07;100425.69;;;18.11;59.62
61113;BME280;47184;57.998;56.184;2022-08-11T07:19:39;100425.25;;;18.01;59.83
61113;BME280;47184;57.998;56.184;2022-08-11T07:22:29;100416.59;;;17.99;60.09
61113;BME280;47184;57.998;56.184;2022-08-11T07:25:15;100431.84;;;18.05;60.38
61113;BME280;47184;57.998;56.184;2022-08-11T07:28:13;100384.72;;;17.56;61.49
61113;BME280;47184;57.998;56.184;2022-08-11T07:31:11;100434.44;;;17.85;61.28
61113;BME280;47184;57.998;56.184;2022-08-11T07:33:52;100399.56;;;17.65;61.34
61113;BME280;47184;57.998;56.184;2022-08-11T07:36:24;100429.25;;;17.83;61.37
61113;BME280;47184;57.998;56.184;2022-08-11T07:38:53;100442.28;;;17.93;61.15
61113;BME280;47184;57.998;56.184;2022-08-11T07:41:24;100407.22;;;17.75;61.52
61113;BME280;47184;57.998;56.184;2022-08-11T07:43:57;100448.00;;;17.90;61.46
61113;BME280;47184;57.998;56.184;2022-08-11T07:46:44;100416.53;;;17.86;61.45
61113;BME280;47184;57.998;56.184;2022-08-11T07:49:32;100416.97;;;17.89;61.23
61113;BME280;47184;57.998;56.184;2022-08-11T07:52:18;100449.00;;;17.82;61.65
61113;BME280;47184;57.998;56.184;2022-08-11T07:55:05;100450.31;;;17.65;62.03
61113;BME280;47184;57.998;56.184;2022-08-11T07:57:32;100445.84;;;17.44;62.50
61113;BME280;47184;57.998;56.184;2022-08-11T08:00:18;100450.31;;;17.37;63.00
61113;BME280;47184;57.998;56.184;2022-08-11T08:03:06;100429.03;;;17.50;62.73
61113;BME280;47184;57.998;56.184;2022-08-11T08:05:52;100467.00;;;17.74;62.04
61113;BME280;47184;57.998;56.184;2022-08-11T08:08:39;100364.38;;;17.20;61.36
61113;BME280;47184;57.998;56.184;2022-08-11T08:11:25;100459.66;;;18.17;60.54
61113;BME280;47184;57.998;56.184;2022-08-11T08:14:10;100358.03;;;17.63;59.81
61113;BME280;47184;57.998;56.184;2022-08-11T08:16:56;100467.00;;;18.63;59.13
61113;BME280;47184;57.998;56.184;2022-08-11T08:19:48;100458.31;;;18.48;58.81
61113;BME280;47184;57.998;56.184;2022-08-11T08:22:18;100453.16;;;18.33;59.14
61113;BME280;47184;57.998;56.184;2022-08-11T08:24:45;100476.22;;;18.47;58.95
61113;BME280;47184;57.998;56.184;2022-08-11T08:27:13;100461.38;;;18.38;59.16
61113;BME280;47184;57.998;56.184;2022-08-11T08:29:41;100439.19;;;18.38;58.69
61113;BME280;47184;57.998;56.184;2022-08-11T08:32:30;100443.25;;;18.27;58.16
61113;BME280;47184;57.998;56.184;2022-08-11T08:34:58;100490.63;;;18.53;58.43
61113;BME280;47184;57.998;56.184;2022-08-11T08:37:25;100479.34;;;18.64;58.07
61113;BME280;47184;57.998;56.184;2022-08-11T08:39:53;100419.22;;;18.34;57.87
61113;BME280;47184;57.998;56.184;2022-08-11T08:42:27;100488.63;;;18.62;57.84
61113;BME280;47184;57.998;56.184;2022-08-11T08:44:58;100461.34;;;18.31;58.00
61113;BME280;47184;57.998;56.184;2022-08-11T08:47:30;100488.66;;;18.20;58.87
61113;BME280;47184;57.998;56.184;2022-08-11T08:50:07;100484.34;;;18.19;58.52
61113;BME280;47184;57.998;56.184;2022-08-11T08:52:37;100495.88;;;18.26;58.31
61113;BME280;47184;57.998;56.184;2022-08-11T08:55:10;100483.16;;;18.35;58.22
61113;BME280;47184;57.998;56.184;2022-08-11T08:57:44;100490.44;;;18.61;57.56
61113;BME280;47184;57.998;56.184;2022-08-11T09:00:13;100486.03;;;19.01;56.47
61113;BME280;47184;57.998;56.184;2022-08-11T09:03:03;100485.66;;;19.18;55.52
61113;BME280;47184;57.998;56.184;2022-08-11T09:05:55;100470.63;;;18.90;55.35
61113;BME280;47184;57.998;56.184;2022-08-11T09:08:24;100413.56;;;18.70;55.19
61113;BME280;47184;57.998;56.184;2022-08-11T09:10:51;100499.66;;;19.33;55.01
61113;BME280;47184;57.998;56.184;2022-08-11T09:13:39;100498.00;;;19.25;55.16
61113;BME280;47184;57.998;56.184;2022-08-11T09:16:09;100480.69;;;19.01;55.17
61113;BME280;47184;57.998;56.184;2022-08-11T09:18:37;100442.31;;;18.54;55.20
61113;BME280;47184;57.998;56.184;2022-08-11T09:21:05;100412.19;;;18.26;55.34
61113;BME280;47184;57.998;56.184;2022-08-11T09:23:32;100517.94;;;18.83;56.04
61113;BME280;47184;57.998;56.184;2022-08-11T09:26:18;100536.69;;;18.96;55.67
61113;BME280;47184;57.998;56.184;2022-08-11T09:29:03;100534.66;;;19.05;55.72
61113;BME280;47184;57.998;56.184;2022-08-11T09:31:30;100505.22;;;18.98;55.55
61113;BME280;47184;57.998;56.184;2022-08-11T09:34:00;100504.75;;;18.88;55.54
61113;BME280;47184;57.998;56.184;2022-08-11T09:36:27;100489.09;;;18.78;55.46
61113;BME280;47184;57.998;56.184;2022-08-11T09:39:13;100491.25;;;18.55;55.88
61113;BME280;47184;57.998;56.184;2022-08-11T09:42:01;100504.16;;;18.38;56.84
61113;BME280;47184;57.998;56.184;2022-08-11T09:44:29;100519.88;;;18.13;57.96
61113;BME280;47184;57.998;56.184;2022-08-11T09:47:26;100517.53;;;17.97;58.63
61113;BME280;47184;57.998;56.184;2022-08-11T09:50:00;100530.44;;;17.93;58.79
61113;BME280;47184;57.998;56.184;2022-08-11T09:52:35;100528.44;;;18.02;58.56
61113;BME280;47184;57.998;56.184;2022-08-11T09:55:03;100537.94;;;18.04;58.73
61113;BME280;47184;57.998;56.184;2022-08-11T09:57:39;100539.91;;;18.30;58.11
61113;BME280;47184;57.998;56.184;2022-08-11T10:00:30;100539.44;;;18.62;57.07
61113;BME280;47184;57.998;56.184;2022-08-11T10:02:57;100547.19;;;18.91;56.04
61113;BME280;47184;57.998;56.184;2022-08-11T10:05:28;100520.84;;;20.14;53.58
61113;BME280;47184;57.998;56.184;2022-08-11T10:08:16;100535.00;;;22.36;48.99
61113;BME280;47184;57.998;56.184;2022-08-11T10:10:45;100534.44;;;23.90;45.85
61113;BME280;47184;57.998;56.184;2022-08-11T10:13:26;100527.41;;;24.53;43.42
61113;BME280;47184;57.998;56.184;2022-08-11T10:16:02;100485.84;;;24.02;43.16
61113;BME280;47184;57.998;56.184;2022-08-11T10:18:33;100523.97;;;24.05;43.80
61113;BME280;47184;57.998;56.184;2022-08-11T10:21:40;100516.31;;;25.40;41.79
61113;BME280;47184;57.998;56.184;2022-08-11T10:24:09;100408.88;;;24.68;40.15
61113;BME280;47184;57.998;56.184;2022-08-11T10:26:55;100475.63;;;24.15;40.30
61113;BME280;47184;57.998;56.184;2022-08-11T10:29:31;100492.78;;;23.62;41.23
61113;BME280;47184;57.998;56.184;2022-08-11T10:32:22;100519.81;;;23.20;42.72
61113;BME280;47184;57.998;56.184;2022-08-11T10:35:08;100513.44;;;23.03;42.75
61113;BME280;47184;57.998;56.184;2022-08-11T10:37:37;100500.44;;;22.70;43.30
61113;BME280;47184;57.998;56.184;2022-08-11T10:40:06;100497.25;;;23.57;42.87
61113;BME280;47184;57.998;56.184;2022-08-11T10:42:34;100462.72;;;24.58;40.38
61113;BME280;47184;57.998;56.184;2022-08-11T10:45:19;100498.97;;;25.91;37.88
61113;BME280;47184;57.998;56.184;2022-08-11T10:48:05;100504.72;;;26.61;37.00
61113;BME280;47184;57.998;56.184;2022-08-11T10:50:32;100496.38;;;27.22;35.97
61113;BME280;47184;57.998;56.184;2022-08-11T10:53:17;100490.88;;;27.86;35.02
61113;BME280;47184;57.998;56.184;2022-08-11T10:56:04;100405.06;;;26.14;35.48
61113;BME280;47184;57.998;56.184;2022-08-11T10:58:51;100495.97;;;26.32;36.00
61113;BME280;47184;57.998;56.184;2022-08-11T11:01:47;100481.31;;;26.50;35.45
61113;BME280;47184;57.998;56.184;2022-08-11T11:04:17;100497.25;;;27.64;34.68
61113;BME280;47184;57.998;56.184;2022-08-11T11:07:01;100491.00;;;29.30;32.75
61113;BME280;47184;57.998;56.184;2022-08-11T11:09:31;100500.75;;;28.80;32.70
61113;BME280;47184;57.998;56.184;2022-08-11T11:12:02;100493.78;;;27.74;33.97
61113;BME280;47184;57.998;56.184;2022-08-11T11:14:52;100503.81;;;26.50;34.71
61113;BME280;47184;57.998;56.184;2022-08-11T11:20:37;100497.63;;;24.36;38.48
61113;BME280;47184;57.998;56.184;2022-08-11T11:23:27;100492.56;;;23.64;39.78
61113;BME280;47184;57.998;56.184;2022-08-11T11:37:18;100506.84;;;23.64;40.16
61113;BME280;47184;57.998;56.184;2022-08-11T11:39:45;100491.59;;;23.23;40.51
61113;BME280;47184;57.998;56.184;2022-08-11T11:42:12;100498.78;;;22.99;41.00
61113;BME280;47184;57.998;56.184;2022-08-11T11:44:42;100507.38;;;22.89;40.93
61113;BME280;47184;57.998;56.184;2022-08-11T11:47:14;100440.69;;;22.31;41.22
61113;BME280;47184;57.998;56.184;2022-08-11T11:49:45;100438.91;;;22.25;41.41
61113;BME280;47184;57.998;56.184;2022-08-11T11:52:15;100497.50;;;22.71;41.56
61113;BME280;47184;57.998;56.184;2022-08-11T11:54:45;100497.72;;;23.65;40.67
61113;BME280;47184;57.998;56.184;2022-08-11T11:57:19;100491.84;;;23.92;40.12
61113;BME280;47184;57.998;56.184;2022-08-11T12:00:06;100442.50;;;23.56;40.39
61113;BME280;47184;57.998;56.184;2022-08-11T12:02:52;100486.13;;;23.77;39.79
61113;BME280;47184;57.998;56.184;2022-08-11T12:05:21;100458.41;;;23.22;40.15
61113;BME280;47184;57.998;56.184;2022-08-11T12:07:50;100482.31;;;23.07;40.39
61113;BME280;47184;57.998;56.184;2022-08-11T12:10:43;100470.97;;;22.57;41.21
61113;BME280;47184;57.998;56.184;2022-08-11T12:13:10;100491.94;;;22.55;41.30
61113;BME280;47184;57.998;56.184;2022-08-11T12:15:56;100501.41;;;22.57;41.21
61113;BME280;47184;57.998;56.184;2022-08-11T12:18:25;100500.59;;;22.57;40.78
61113;BME280;47184;57.998;56.184;2022-08-11T12:20:52;100503.69;;;22.42;40.44
61113;BME280;47184;57.998;56.184;2022-08-11T12:23:18;100501.88;;;22.36;40.65
61113;BME280;47184;57.998;56.184;2022-08-11T12:26:03;100475.91;;;22.30;41.15
61113;BME280;47184;57.998;56.184;2022-08-11T12:28:48;100470.09;;;22.44;40.66
61113;BME280;47184;57.998;56.184;2022-08-11T12:31:15;100508.75;;;22.98;40.23
61113;BME280;47184;57.998;56.184;2022-08-11T12:33:41;100497.22;;;24.04;39.10
61113;BME280;47184;57.998;56.184;2022-08-11T12:36:09;100418.91;;;24.27;37.13
61113;BME280;47184;57.998;56.184;2022-08-11T12:38:44;100504.97;;;25.77;36.32
61113;BME280;47184;57.998;56.184;2022-08-11T12:41:14;100443.53;;;26.16;34.33
61113;BME280;47184;57.998;56.184;2022-08-11T12:43:59;100509.28;;;26.55;33.07
61113;BME280;47184;57.998;56.184;2022-08-11T12:46:46;100501.03;;;26.72;33.00
61113;BME280;47184;57.998;56.184;2022-08-11T12:49:17;100408.75;;;26.84;33.12
61113;BME280;47184;57.998;56.184;2022-08-11T12:52:13;100507.38;;;28.32;31.79
61113;BME280;47184;57.998;56.184;2022-08-11T12:57:30;100495.91;;;29.28;29.64
61113;BME280;47184;57.998;56.184;2022-08-11T13:00:18;100495.06;;;29.02;29.74
61113;BME280;47184;57.998;56.184;2022-08-11T13:03:06;100451.03;;;29.21;29.48
61113;BME280;47184;57.998;56.184;2022-08-11T13:05:53;100495.72;;;30.20;28.76
61113;BME280;47184;57.998;56.184;2022-08-11T13:08:22;100498.44;;;30.80;28.35
61113;BME280;47184;57.998;56.184;2022-08-11T13:10:51;100468.34;;;30.95;27.20
61113;BME280;47184;57.998;56.184;2022-08-11T13:13:38;100490.28;;;30.25;27.68
61113;BME280;47184;57.998;56.184;2022-08-11T13:16:07;100497.16;;;29.92;27.92
61113;BME280;47184;57.998;56.184;2022-08-11T13:18:36;100501.22;;;30.05;27.75
61113;BME280;47184;57.998;56.184;2022-08-11T13:21:04;100498.19;;;30.22;27.56
61113;BME280;47184;57.998;56.184;2022-08-11T13:23:31;100520.38;;;30.49;27.07
61113;BME280;47184;57.998;56.184;2022-08-11T13:25:57;100496.03;;;30.19;26.79
61113;BME280;47184;57.998;56.184;2022-08-11T13:28:24;100517.00;;;30.08;27.41
61113;BME280;47184;57.998;56.184;2022-08-11T13:30:50;100510.22;;;30.00;27.51
61113;BME280;47184;57.998;56.184;2022-08-11T13:33:41;100484.41;;;29.82;27.46
61113;BME280;47184;57.998;56.184;2022-08-11T13:36:08;100512.97;;;29.95;27.77
61113;BME280;47184;57.998;56.184;2022-08-11T13:38:36;100513.50;;;29.97;26.79
61113;BME280;47184;57.998;56.184;2022-08-11T13:41:03;100519.91;;;30.37;26.93
61113;BME280;47184;57.998;56.184;2022-08-11T13:43:50;100441.66;;;29.83;26.74
61113;BME280;47184;57.998;56.184;2022-08-11T13:46:19;100521.06;;;30.26;27.07
61113;BME280;47184;57.998;56.184;2022-08-11T13:48:50;100524.38;;;30.18;26.67
61113;BME280;47184;57.998;56.184;2022-08-11T13:51:18;100537.44;;;30.16;26.36
61113;BME280;47184;57.998;56.184;2022-08-11T13:54:05;100483.88;;;29.85;26.52
61113;BME280;47184;57.998;56.184;2022-08-11T13:56:34;100473.56;;;29.72;26.39
61113;BME280;47184;57.998;56.184;2022-08-11T13:59:02;100527.66;;;29.94;26.41
61113;BME280;47184;57.998;56.184;2022-08-11T14:01:32;100457.56;;;29.09;26.27
61113;BME280;47184;57.998;56.184;2022-08-11T14:04:10;100525.53;;;29.55;26.82
61113;BME280;47184;57.998;56.184;2022-08-11T14:06:41;100523.38;;;29.32;26.97
61113;BME280;47184;57.998;56.184;2022-08-11T14:09:09;100496.59;;;28.57;27.27
61113;BME280;47184;57.998;56.184;2022-08-11T14:11:37;100528.78;;;28.13;27.94
61113;BME280;47184;57.998;56.184;2022-08-11T14:14:30;100522.97;;;27.57;28.82
61113;BME280;47184;57.998;56.184;2022-08-11T14:17:03;100529.16;;;26.93;29.29
61113;BME280;47184;57.998;56.184;2022-08-11T14:19:31;100524.13;;;26.31;29.77
61113;BME280;47184;57.998;56.184;2022-08-11T14:22:01;100484.06;;;25.72;30.67
61113;BME280;47184;57.998;56.184;2022-08-11T14:24:37;100514.25;;;25.64;31.46
61113;BME280;47184;57.998;56.184;2022-08-11T14:27:06;100487.41;;;25.24;31.85
61113;BME280;47184;57.998;56.184;2022-08-11T14:29:34;100508.09;;;25.18;32.29
61113;BME280;47184;57.998;56.184;2022-08-11T14:32:06;100452.81;;;24.63;32.59
61113;BME280;47184;57.998;56.184;2022-08-11T14:34:34;100515.06;;;24.57;33.39
61113;BME280;47184;57.998;56.184;2022-08-11T14:37:13;100486.22;;;23.93;33.94
61113;BME280;47184;57.998;56.184;2022-08-11T14:39:50;100519.19;;;23.72;34.44
61113;BME280;47184;57.998;56.184;2022-08-11T14:42:19;100453.13;;;23.04;35.27
61113;BME280;47184;57.998;56.184;2022-08-11T14:45:08;100482.28;;;22.77;35.78
61113;BME280;47184;57.998;56.184;2022-08-11T14:47:59;100523.50;;;22.78;37.05
61113;BME280;47184;57.998;56.184;2022-08-11T14:50:32;100470.41;;;22.36;37.11
61113;BME280;47184;57.998;56.184;2022-08-11T14:53:01;100489.03;;;22.38;37.27
61113;BME280;47184;57.998;56.184;2022-08-11T14:55:35;100514.78;;;22.64;37.58
61113;BME280;47184;57.998;56.184;2022-08-11T14:58:23;100498.94;;;22.56;38.02
61113;BME280;47184;57.998;56.184;2022-08-11T15:00:52;100473.16;;;22.18;38.54
61113;BME280;47184;57.998;56.184;2022-08-11T15:03:20;100501.63;;;22.25;38.46
61113;BME280;47184;57.998;56.184;2022-08-11T15:05:52;100514.53;;;22.35;38.73
61113;BME280;47184;57.998;56.184;2022-08-11T15:08:22;100452.13;;;21.90;38.93
61113;BME280;47184;57.998;56.184;2022-08-11T15:11:09;100519.84;;;22.23;39.26
61113;BME280;47184;57.998;56.184;2022-08-11T15:13:58;100443.41;;;21.76;39.69
61113;BME280;47184;57.998;56.184;2022-08-11T15:16:26;100516.19;;;22.18;39.94
61113;BME280;47184;57.998;56.184;2022-08-11T15:19:12;100515.56;;;22.16;40.22
61113;BME280;47184;57.998;56.184;2022-08-11T15:21:39;100476.84;;;21.80;40.31
61113;BME280;47184;57.998;56.184;2022-08-11T15:24:24;100517.63;;;21.95;40.49
61113;BME280;47184;57.998;56.184;2022-08-11T15:26:51;100469.66;;;21.56;40.96
61113;BME280;47184;57.998;56.184;2022-08-11T15:29:38;100520.06;;;21.79;41.09
61113;BME280;47184;57.998;56.184;2022-08-11T15:32:25;100522.47;;;21.87;41.41
61113;BME280;47184;57.998;56.184;2022-08-11T15:35:12;100526.50;;;21.96;41.36
61113;BME280;47184;57.998;56.184;2022-08-11T15:38:01;100473.91;;;21.63;41.35
61113;BME280;47184;57.998;56.184;2022-08-11T15:40:37;100525.53;;;21.90;41.40
61113;BME280;47184;57.998;56.184;2022-08-11T15:43:39;100519.19;;;21.85;41.67
61113;BME280;47184;57.998;56.184;2022-08-11T15:46:49;100487.19;;;21.58;41.80
61113;BME280;47184;57.998;56.184;2022-08-11T15:49:29;100519.63;;;21.82;41.96
61113;BME280;47184;57.998;56.184;2022-08-11T15:52:12;100521.13;;;21.77;42.26
61113;BME280;47184;57.998;56.184;2022-08-11T15:54:42;100468.72;;;21.43;42.48
61113;BME280;47184;57.998;56.184;2022-08-11T15:57:12;100459.25;;;21.41;42.17
61113;BME280;47184;57.998;56.184;2022-08-11T16:00:20;100530.97;;;21.84;42.10
61113;BME280;47184;57.998;56.184;2022-08-11T16:03:07;100515.22;;;21.69;42.40
61113;BME280;47184;57.998;56.184;2022-08-11T16:05:53;100524.19;;;21.81;42.68
61113;BME280;47184;57.998;56.184;2022-08-11T16:08:23;100526.25;;;21.79;42.97
61113;BME280;47184;57.998;56.184;2022-08-11T16:10:52;100495.47;;;21.57;42.82
61113;BME280;47184;57.998;56.184;2022-08-11T16:13:22;100528.03;;;21.67;43.12
61113;BME280;47184;57.998;56.184;2022-08-11T16:15:51;100533.34;;;21.73;43.22
61113;BME280;47184;57.998;56.184;2022-08-11T16:19:03;100546.75;;;21.80;43.58
61113;BME280;47184;57.998;56.184;2022-08-11T16:21:33;100539.78;;;21.72;43.24
61113;BME280;47184;57.998;56.184;2022-08-11T16:24:03;100527.72;;;21.57;43.56
61113;BME280;47184;57.998;56.184;2022-08-11T16:26:34;100543.47;;;21.53;43.69
61113;BME280;47184;57.998;56.184;2022-08-11T16:29:02;100549.19;;;21.32;43.71
61113;BME280;47184;57.998;56.184;2022-08-11T16:31:31;100602.00;;;21.06;45.67
61113;BME280;47184;57.998;56.184;2022-08-11T16:34:00;100461.97;;;19.28;49.77